Flight Track Log - Related Links

Times and Time Zones

All times are in EDT time to prevent confusion due to time zone crossing. See the FFT907 flight status page for this flight to view local times or setup timezone preferences in your user account.

Time Position Orientation Groundspeed Altitude Reporting Facility
EDT Latitude Longitude Course Direction KTS MPH feet Rate Location/Type
Sun 01:47:13 PM 41.8000 -87.7833 261° West 159 183 2,200  Level Chicago TRACON
Sun 01:48:07 PM 41.7939 -87.8381 261° West 221 254 3,000 2,087 Climbing Chicago Center
Sun 01:49:08 PM 41.7675 -87.9319 249° West 233 268 6,200 2,878 Climbing Chicago Center
Sun 01:50:10 PM 41.8072 -88.0039 307° West 246 283 8,900 2,419 Climbing Chicago Center
Sun 01:51:12 PM 41.8444 -88.0792 304° West 248 285 11,200 1,548 Climbing Chicago Center
Sun 01:52:14 PM 41.8417 -88.1758 268° West 264 304 12,100 1,512 Climbing Chicago Center
Sun 01:53:15 PM 41.8308 -88.2850 262° West 293 337 14,300 2,146 Climbing Chicago Center
Sun 01:54:17 PM 41.8153 -88.4242 262° West 316 364 16,500 2,081 Climbing Chicago Center
Sun 01:55:19 PM 41.7997 -88.5444 260° West 327 376 18,600 1,854 Climbing Chicago Center
Sun 01:56:20 PM 41.7853 -88.6697 261° West 340 391 20,300 1,659 Climbing Chicago Center
Sun 01:57:22 PM 41.7725 -88.7972 262° West 347 399 22,000 1,645 Climbing Chicago Center
Sun 01:58:24 PM 41.7589 -88.9283 262° West 355 409 23,700 1,680 Climbing Chicago Center
Sun 01:59:27 PM 41.7586 -89.0886 270° West 365 420 25,500 1,296 Climbing Chicago Center
Sun 02:00:29 PM 41.7639 -89.2294 273° West 377 434 26,400 1,122 Climbing Chicago Center
Sun 02:01:30 PM 41.7703 -89.3728 273° West 388 447 27,800 1,317 Climbing Chicago Center
Sun 02:02:32 PM 41.7750 -89.5200 273° West 396 456 29,100 1,210 Climbing Chicago Center
Sun 02:03:34 PM 41.7811 -89.6700 273° West 396 456 30,300 1,065 Climbing Chicago Center
Sun 02:04:36 PM 41.7894 -89.8189 274° West 401 461 31,300 1,171 Climbing Chicago Center
Sun 02:05:37 PM 41.7983 -89.9667 275° West 400 460 32,700 1,268 Climbing Chicago Center
Sun 02:06:39 PM 41.7997 -90.1439 271° West 398 458 33,900 1,210 Climbing Chicago Center
Sun 02:07:41 PM 41.7906 -90.2900 265° West 395 455 35,200 1,024 Climbing Chicago Center
Sun 02:08:42 PM 41.7825 -90.4353 266° West 395 455 36,000 390 Climbing Chicago Center
Sun 02:09:44 PM 41.7739 -90.5753 265° West 385 443 36,000  Level Chicago Center
Sun 02:10:46 PM 41.7661 -90.7222 266° West 381 438 36,000  Level Chicago Center
Sun 02:11:47 PM 41.7569 -90.8636 265° West 384 442 36,000  Level Chicago Center
Sun 02:12:49 PM 41.7489 -91.0036 266° West 382 440 36,000  Level Chicago Center
Sun 02:13:51 PM 41.7397 -91.1469 265° West 386 444 36,000  Level Chicago Center
Sun 02:14:53 PM 41.7294 -91.3161 265° West 384 442 36,000  Level Chicago Center
Sun 02:15:54 PM 41.7194 -91.4592 265° West 388 447 36,000  Level Chicago Center
Sun 02:16:56 PM 41.7106 -91.6022 265° West 388 447 36,000  Level Chicago Center
Sun 02:17:58 PM 41.7008 -91.7461 265° West 391 450 36,000  Level Chicago Center
Sun 02:19:00 PM 41.6911 -91.8908 265° West 393 452 36,000  Level Chicago Center
Sun 02:20:02 PM 41.6811 -92.0358 265° West 393 452 36,000  Level Chicago Center
Sun 02:21:04 PM 41.6683 -92.2075 264° West 391 450 36,000  Level Chicago Center
Sun 02:22:06 PM 41.6578 -92.3522 264° West 392 451 36,000  Level Chicago Center
Sun 02:23:07 PM 41.6481 -92.4989 265° West 395 455 36,000  Level Chicago Center
Sun 02:24:09 PM 41.6361 -92.6450 264° West 398 458 36,000  Level Chicago Center
Sun 02:25:11 PM 41.6244 -92.8044 264° West 400 460 36,000  Level Chicago Center
Sun 02:26:23 PM 41.6117 -92.9817 265° West 402 463 36,000  Level Minneapolis Center
Sun 02:27:25 PM 41.5997 -93.1281 264° West 401 461 36,000  Level Minneapolis Center
Sun 02:28:27 PM 41.5875 -93.2722 264° West 399 459 36,000  Level Minneapolis Center
Sun 02:29:29 PM 41.5731 -93.4472 264° West 399 459 36,000  Level Minneapolis Center
Sun 02:30:31 PM 41.5608 -93.5933 264° West 399 459 36,000  Level Minneapolis Center
Sun 02:31:33 PM 41.5478 -93.7406 263° West 401 461 36,000  Level Minneapolis Center
Sun 02:32:35 PM 41.5375 -93.8853 265° West 401 461 36,000  Level Minneapolis Center
Sun 02:33:37 PM 41.5256 -94.0328 264° West 402 463 36,000  Level Minneapolis Center
Sun 02:34:39 PM 41.5086 -94.2128 263° West 410 472 36,000  Level Minneapolis Center
Sun 02:35:41 PM 41.4933 -94.3714 263° West 414 476 36,000  Level Minneapolis Center
Sun 02:36:42 PM 41.4797 -94.5217 263° West 410 472 36,000  Level Minneapolis Center
Sun 02:37:44 PM 41.4656 -94.6717 263° West 409 471 36,000  Level Minneapolis Center
Sun 02:38:46 PM 41.4519 -94.8231 263° West 412 474 36,000  Level Minneapolis Center
Sun 02:39:48 PM 41.4378 -94.9736 263° West 410 472 36,000  Level Minneapolis Center
Sun 02:40:50 PM 41.4242 -95.1239 263° West 408 470 36,000  Level Minneapolis Center
Sun 02:41:51 PM 41.4086 -95.2733 262° West 408 470 36,000  Level Minneapolis Center
Sun 02:42:53 PM 41.3897 -95.4533 262° West 408 470 36,000  Level Minneapolis Center
Sun 02:43:55 PM 41.3739 -95.6044 262° West 412 474 36,000  Level Minneapolis Center
Sun 02:44:57 PM 41.3600 -95.7503 263° West 414 476 36,000  Level Minneapolis Center
Sun 02:45:58 PM 41.3436 -95.9036 262° West 418 481 36,000  Level Minneapolis Center
Sun 02:47:00 PM 41.3281 -96.0544 262° West 413 475 36,000  Level Minneapolis Center
Sun 02:48:02 PM 41.3092 -96.2361 262° West 413 475 36,000  Level Minneapolis Center
Sun 02:49:04 PM 41.2931 -96.3797 262° West 418 481 36,000  Level Minneapolis Center
Sun 02:50:05 PM 41.2761 -96.5331 262° West 420 483 36,000  Level Minneapolis Center
Sun 02:51:07 PM 41.2594 -96.6853 262° West 417 480 36,000  Level Minneapolis Center
Sun 02:52:09 PM 41.2414 -96.8372 261° West 418 481 36,000  Level Minneapolis Center
Sun 02:53:11 PM 41.2217 -97.0217 262° West 422 486 36,000  Level Minneapolis Center
Sun 02:54:12 PM 41.2025 -97.1747 261° West 422 486 36,000  Level Minneapolis Center
Sun 02:55:14 PM 41.1844 -97.3267 261° West 419 482 36,000  Level Minneapolis Center
Sun 02:56:16 PM 41.1661 -97.4911 262° West 420 483 36,000  Level Minneapolis Center
Sun 02:57:17 PM 41.1475 -97.6433 261° West 418 481 36,000  Level Minneapolis Center
Sun 02:58:19 PM 41.1294 -97.7931 261° West 414 476 36,000  Level Minneapolis Center
Sun 02:59:21 PM 41.1108 -97.9456 261° West 417 480 36,000  Level Minneapolis Center
Sun 03:00:22 PM 41.0925 -98.0978 261° West 418 481 36,000  Level Minneapolis Center
Sun 03:01:24 PM 41.0728 -98.2506 260° West 419 482 36,000  Level Minneapolis Center
Sun 03:02:26 PM 41.0544 -98.4036 261° West 419 482 36,000  Level Minneapolis Center
Sun 03:03:28 PM 41.0364 -98.5722 262° West 417 480 36,000  Level Minneapolis Center
Sun 03:04:29 PM 41.0178 -98.7233 261° West 417 480 36,000  Level Minneapolis Center
Sun 03:05:31 PM 40.9997 -98.8778 261° West 422 486 36,000  Level Minneapolis Center
Sun 03:06:33 PM 40.9844 -99.0308 263° West 422 486 36,000 49 Level Minneapolis Center
Sun 03:07:34 PM 40.9647 -99.2081 262° West 419 482 36,100 65 Climbing Minneapolis Center
Sun 03:08:05 PM 40.9578 -99.2686 261° West 421 484 36,100 -65 Level Denver Center
Sun 03:09:06 PM 40.9400 -99.4208 261° West 418 481 36,000 -49 Descending Denver Center
Sun 03:10:08 PM 40.9219 -99.5706 261° West 415 478 36,000  Level Denver Center
Sun 03:11:10 PM 40.9039 -99.7211 261° West 414 476 36,000  Level Denver Center
Sun 03:12:11 PM 40.8819 -99.9017 261° West 417 480 36,000  Level Denver Center
Sun 03:13:13 PM 40.8647 -100.0458 261° West 415 478 36,000  Level Denver Center
Sun 03:14:15 PM 40.8433 -100.2128 260° West 413 475 36,000  Level Denver Center
Sun 03:15:16 PM 40.8253 -100.3567 261° West 414 476 36,000  Level Denver Center
Sun 03:16:18 PM 40.8064 -100.4989 260° West 412 474 36,000  Level Denver Center
Sun 03:17:19 PM 40.7844 -100.6650 260° West 416 479 36,000 49 Level Denver Center
Sun 03:18:21 PM 40.7572 -100.8222 257° West 436 502 36,100 48 Climbing Denver Center
Sun 03:19:23 PM 40.7350 -100.9672 259° West 418 481 36,100 -49 Level Denver Center
Sun 03:20:24 PM 40.7069 -101.1347 258° West 415 478 36,000 -49 Descending Denver Center
Sun 03:21:26 PM 40.6825 -101.2769 257° West 416 479 36,000  Level Denver Center
Sun 03:22:27 PM 40.6575 -101.4192 257° West 417 480 36,000  Level Denver Center
Sun 03:23:29 PM 40.6286 -101.5858 257° West 419 482 36,000  Level Denver Center
Sun 03:24:31 PM 40.6025 -101.7303 257° West 423 487 36,000  Level Denver Center
Sun 03:25:32 PM 40.5714 -101.8989 256° West 426 490 36,000  Level Denver Center
Sun 03:26:34 PM 40.5444 -102.0433 256° West 426 490 36,000  Level Denver Center
Sun 03:27:35 PM 40.5136 -102.2111 256° West 423 487 36,000  Level Denver Center
Sun 03:28:37 PM 40.4864 -102.3542 256° West 422 486 36,000 -48 Level Denver Center
Sun 03:29:39 PM 40.4606 -102.4983 257° West 424 488 35,900 -1,268 Descending Denver Center
Sun 03:30:40 PM 40.4289 -102.6636 256° West 419 482 33,400 -2,537 Descending Denver Center
Sun 03:31:42 PM 40.4022 -102.8122 257° West 424 488 30,700 -2,390 Descending Denver Center
Sun 03:32:43 PM 40.3725 -102.9594 255° West 419 482 28,500 -2,146 Descending Denver Center
Sun 03:33:45 PM 40.3467 -103.1022 257° West 405 466 26,300 -2,146 Descending Denver Center
Sun 03:34:46 PM 40.3192 -103.2406 255° West 396 456 24,100 -2,146 Descending Denver Center
Sun 03:35:48 PM 40.2936 -103.3775 256° West 388 447 21,900 -1,984 Descending Denver Center
Sun 03:36:50 PM 40.2611 -103.5381 255° West 382 440 20,000 -1,467 Descending Denver Center
Sun 03:38:03 PM 40.2356 -103.6697 256° West 376 433 18,600 -1,289 Descending Denver Center
Sun 03:39:05 PM 40.2075 -103.8233 257° West 359 413 17,100 -1,306 Descending Denver Center
Sun 03:40:07 PM 40.2075 -103.9433 270° West 312 359 15,900 -1,024 Descending Denver Center
Sun 03:41:08 PM 40.2292 -104.0475 285° West 298 343 15,000 -878 Descending Denver Center
Sun 03:42:10 PM 40.2661 -104.1317 300° West 270 311 14,100 -488 Descending Denver Center
Sun 03:43:11 PM 40.2828 -104.2300 283° West 266 306 14,000 -488 Descending Denver Center
Sun 03:44:13 PM 40.2811 -104.3225 269° West 257 296 13,100 -927 Descending Denver Center
Sun 03:45:14 PM 40.2656 -104.4069 256° West 244 281 12,100 -927 Descending Denver Center
Sun 03:46:16 PM 40.2272 -104.4886 238° Southwest 244 281 11,200 -968 Descending Denver Center
Sun 03:47:18 PM 40.1719 -104.5392 215° Southwest 241 277 10,100 -1,024 Descending Denver Center
Sun 03:48:19 PM 40.1181 -104.5883 215° Southwest 238 274 9,100 -976 Descending Denver Center
Sun 03:49:21 PM 40.0569 -104.6339 210° Southwest 235 270 8,100 -829 Descending Denver Center
Sun 03:50:22 PM 40.0139 -104.6636 208° Southwest 230 265 7,400 -829 Descending Denver Center
Sun 03:51:24 PM 39.9492 -104.6867 195° South 197 227 6,400 -871 Descending Denver Center
Sun 03:52:26 PM 39.9056 -104.6869 180° South 147 169 5,600 -774 Descending Denver Center
Sun 03:54:00 PM 39.8617 -104.6732 190° South  Level Estimated
Sun 04:01:00 PM 39.8617 -104.6732 190° South  Level Estimated
Sun 04:02:00 PM 39.8617 -104.6732 190° South  Level Estimated

Login

Don't have an account? Register now (free) for customized features, flight alerts, and more!